createdAt,value
2019-04-14T00:01:37.645Z,20.57
2019-04-14T00:04:09.444Z,19.60
2019-04-14T00:06:40.289Z,19.83
2019-04-14T00:09:11.783Z,19.17
2019-04-14T00:11:41.356Z,21.03
2019-04-14T00:14:11.700Z,20.43
2019-04-14T00:16:41.012Z,20.50
2019-04-14T00:19:10.836Z,19.93
2019-04-14T00:21:41.034Z,20.37
2019-04-14T00:24:10.116Z,20.27
2019-04-14T00:26:40.215Z,20.13
2019-04-14T00:29:09.206Z,19.80
2019-04-14T00:31:39.119Z,18.53
2019-04-14T00:34:09.837Z,18.87
2019-04-14T00:36:41.541Z,20.10
2019-04-14T00:39:12.400Z,20.20
2019-04-14T00:41:48.881Z,18.73
2019-04-14T00:44:14.654Z,19.60
2019-04-14T00:46:45.351Z,20.27
2019-04-14T00:49:15.654Z,20.30
2019-04-14T00:51:46.006Z,19.70
2019-04-14T00:54:15.477Z,20.47
2019-04-14T00:56:47.694Z,19.73
2019-04-14T00:59:17.729Z,21.23
2019-04-14T01:01:46.877Z,20.97
2019-04-14T01:04:16.538Z,20.10
2019-04-14T01:06:46.831Z,21.80
2019-04-14T01:09:17.167Z,21.60
2019-04-14T01:11:46.516Z,22.37
2019-04-14T01:14:16.859Z,22.87
2019-04-14T01:16:47.255Z,22.50
2019-04-14T01:19:17.632Z,24.67
2019-04-14T01:21:48.028Z,21.87
2019-04-14T01:24:17.100Z,21.90
2019-04-14T01:26:46.383Z,22.03
2019-04-14T01:29:16.493Z,22.10
2019-04-14T01:31:45.549Z,22.83
2019-04-14T01:34:15.167Z,23.03
2019-04-14T01:36:45.321Z,20.03
2019-04-14T01:39:15.383Z,18.77
2019-04-14T01:41:45.560Z,16.27
2019-04-14T01:44:15.618Z,17.73
2019-04-14T01:46:45.587Z,17.33
2019-04-14T01:49:15.699Z,17.53
2019-04-14T01:51:46.417Z,16.97
2019-04-14T01:54:17.164Z,17.43
2019-04-14T01:56:47.740Z,15.93
2019-04-14T01:59:17.451Z,16.70
2019-04-14T02:01:48.089Z,16.90
2019-04-14T02:04:18.137Z,16.07
2019-04-14T02:06:48.326Z,17.70
2019-04-14T02:09:18.562Z,16.77
2019-04-14T02:11:48.745Z,17.70
2019-04-14T02:14:18.992Z,16.43
2019-04-14T02:16:52.636Z,17.87
2019-04-14T02:19:19.825Z,18.57
2019-04-14T02:21:49.890Z,18.13
2019-04-14T02:24:20.004Z,19.97
2019-04-14T02:26:50.177Z,18.33
2019-04-14T02:29:19.264Z,16.63
2019-04-14T02:32:17.593Z,16.53
2019-04-14T02:34:47.996Z,15.97
2019-04-14T02:37:24.175Z,17.30
2019-04-14T02:40:05.302Z,17.00
2019-04-14T02:42:32.611Z,17.47
2019-04-14T02:49:51.407Z,19.30
2019-04-14T02:52:22.287Z,17.20
2019-04-14T02:57:27.151Z,18.10
2019-04-14T03:00:09.384Z,14.83
2019-04-14T03:02:36.891Z,16.27
2019-04-14T03:04:56.395Z,15.73
2019-04-14T03:12:31.532Z,16.07
2019-04-14T03:15:23.978Z,18.30
2019-04-14T03:18:00.566Z,18.60
2019-04-14T03:20:28.093Z,20.57
2019-04-14T03:22:59.142Z,19.53
2019-04-14T03:25:22.813Z,20.70
2019-04-14T03:28:06.954Z,16.53
2019-04-14T03:31:03.992Z,17.20
2019-04-14T03:33:32.170Z,19.97
2019-04-14T03:36:09.021Z,15.33
2019-04-14T03:40:45.081Z,17.43
2019-04-14T03:43:18.371Z,17.57
2019-04-14T03:50:50.174Z,21.23
2019-04-14T03:53:22.168Z,21.00
2019-04-14T03:55:33.216Z,21.20
2019-04-14T03:57:54.095Z,19.47
2019-04-14T04:00:24.568Z,16.83
2019-04-14T04:02:53.933Z,18.53
2019-04-14T04:05:23.800Z,21.50
2019-04-14T04:07:53.847Z,20.20
2019-04-14T04:10:23.115Z,20.87
2019-04-14T04:12:53.232Z,23.73
2019-04-14T04:15:23.446Z,21.80
2019-04-14T04:21:23.474Z,22.33
2019-04-14T04:23:55.352Z,23.33
2019-04-14T04:26:25.717Z,23.20
2019-04-14T04:28:58.366Z,23.07
2019-04-14T04:31:29.330Z,23.23
2019-04-14T04:34:01.063Z,23.57
2019-04-14T04:36:32.069Z,24.17
2019-04-14T04:39:03.941Z,23.07
2019-04-14T04:41:33.974Z,21.43
2019-04-14T04:44:03.301Z,21.27
2019-04-14T04:46:33.116Z,20.73
2019-04-14T04:49:09.816Z,22.07
2019-04-14T04:51:33.347Z,20.77
2019-04-14T04:54:03.865Z,19.33
2019-04-14T04:56:34.063Z,18.30
2019-04-14T04:59:03.617Z,16.27
2019-04-14T05:01:33.798Z,17.87
2019-04-14T05:04:03.218Z,17.37
2019-04-14T05:06:35.081Z,17.60
2019-04-14T05:09:07.949Z,16.40
2019-04-14T05:11:38.887Z,17.37
2019-04-14T05:14:10.868Z,15.83
2019-04-14T05:16:48.484Z,16.00
2019-04-14T05:19:25.774Z,18.23
2019-04-14T05:21:49.434Z,16.90
2019-04-14T05:24:19.974Z,16.40
2019-04-14T05:26:50.531Z,15.90
2019-04-14T05:29:20.997Z,16.57
2019-04-14T05:31:51.317Z,15.03
2019-04-14T05:34:21.371Z,15.93
2019-04-14T05:36:52.068Z,20.10
2019-04-14T05:39:22.040Z,19.30
2019-04-14T05:42:00.476Z,47.53
2019-04-14T05:44:23.071Z,59.10
2019-04-14T05:46:52.101Z,131.60
2019-04-14T05:49:30.660Z,243.37
2019-04-14T05:51:52.498Z,336.33
2019-04-14T05:54:23.055Z,492.00
2019-04-14T05:56:52.284Z,399.27
2019-04-14T05:59:22.000Z,569.23
2019-04-14T06:01:51.199Z,643.37
2019-04-14T06:04:20.525Z,636.03
2019-04-14T06:06:49.851Z,577.83
2019-04-14T06:09:19.328Z,876.57
2019-04-14T06:11:48.494Z,897.13
2019-04-14T06:14:17.907Z,999.90
2019-04-14T06:16:47.062Z,988.67
2019-04-14T06:19:16.378Z,999.90
2019-04-14T06:21:45.465Z,999.90
2019-04-14T06:24:14.416Z,999.90
2019-04-14T06:26:43.453Z,999.90
2019-04-14T06:29:12.494Z,999.90
2019-04-14T06:31:43.182Z,999.90
2019-04-14T06:34:13.833Z,995.70
2019-04-14T06:36:44.463Z,999.90
2019-04-14T06:39:15.132Z,999.90
2019-04-14T06:41:44.249Z,922.83
2019-04-14T06:44:13.193Z,934.50
2019-04-14T06:46:44.336Z,817.07
2019-04-14T06:49:13.493Z,999.90
2019-04-14T06:51:42.457Z,933.63
2019-04-14T06:54:11.470Z,999.90
2019-04-14T06:56:41.695Z,947.53
2019-04-14T06:59:10.673Z,999.90
2019-04-14T07:01:39.781Z,837.23
2019-04-14T07:04:08.907Z,843.93
2019-04-14T07:06:37.942Z,925.67
2019-04-14T07:09:07.126Z,999.90
2019-04-14T07:11:36.150Z,999.90
2019-04-14T07:14:05.151Z,998.83
2019-04-14T07:16:34.178Z,999.90
2019-04-14T07:19:03.203Z,999.90
2019-04-14T07:21:32.231Z,912.93
2019-04-14T07:24:02.932Z,847.87
2019-04-14T07:26:31.954Z,783.33
2019-04-14T07:29:01.027Z,718.13
2019-04-14T07:31:31.706Z,726.03
2019-04-14T07:34:02.352Z,791.77
2019-04-14T07:36:33.027Z,742.90
2019-04-14T07:39:03.685Z,813.10
2019-04-14T07:41:35.434Z,701.10
2019-04-14T07:44:04.383Z,721.60
2019-04-14T07:46:35.102Z,853.23
2019-04-14T07:49:05.742Z,697.10
2019-04-14T07:51:36.407Z,725.87
2019-04-14T07:54:07.058Z,903.20
2019-04-14T07:56:37.807Z,709.87
2019-04-14T07:59:08.415Z,861.97
2019-04-14T08:01:39.090Z,957.57
2019-04-14T08:04:09.743Z,757.43
2019-04-14T08:06:38.757Z,733.63
2019-04-14T08:09:08.775Z,817.50
2019-04-14T08:11:37.785Z,783.60
2019-04-14T08:14:06.744Z,921.77
2019-04-14T08:16:35.753Z,999.90
2019-04-14T08:19:04.812Z,920.10
2019-04-14T08:21:33.823Z,837.00
2019-04-14T08:24:03.087Z,999.90
2019-04-14T08:26:32.148Z,999.90
2019-04-14T08:29:01.164Z,960.33
2019-04-14T08:31:30.534Z,920.27
2019-04-14T08:33:59.878Z,953.60
2019-04-14T08:36:29.230Z,999.90
2019-04-14T08:38:58.574Z,823.83
2019-04-14T08:41:29.476Z,964.73
2019-04-14T08:44:00.396Z,817.43
2019-04-14T08:46:31.167Z,999.90
2019-04-14T08:49:02.139Z,958.77
2019-04-14T08:51:33.026Z,785.43
2019-04-14T08:54:03.835Z,939.83
2019-04-14T08:56:33.215Z,842.63
2019-04-14T08:59:04.294Z,915.03
2019-04-14T09:01:35.195Z,832.50
2019-04-14T09:04:06.135Z,876.80
2019-04-14T09:06:37.026Z,771.40
2019-04-14T09:09:08.492Z,841.93
2019-04-14T09:11:39.402Z,806.73
2019-04-14T09:14:08.706Z,863.17
2019-04-14T09:16:38.135Z,772.30
2019-04-14T09:19:08.127Z,771.10
2019-04-14T09:21:37.361Z,813.30
2019-04-14T09:24:07.327Z,906.30
2019-04-14T09:26:36.360Z,764.60
2019-04-14T09:29:05.362Z,785.80
2019-04-14T09:31:34.604Z,765.53
2019-04-14T09:34:03.621Z,731.03
2019-04-14T09:36:32.651Z,796.50
2019-04-14T09:39:02.778Z,840.83
2019-04-14T09:41:33.440Z,779.63
2019-04-14T09:44:02.519Z,841.93
2019-04-14T09:46:31.630Z,757.63
2019-04-14T09:49:01.596Z,911.10
2019-04-14T09:51:30.628Z,820.77
2019-04-14T09:53:59.623Z,881.37
2019-04-14T09:56:28.650Z,700.13
2019-04-14T09:58:57.757Z,819.17
2019-04-14T10:01:26.794Z,742.30
2019-04-14T10:03:55.821Z,999.33
2019-04-14T10:06:24.848Z,846.67
2019-04-14T10:08:53.857Z,862.63
2019-04-14T10:11:22.889Z,742.20
2019-04-14T10:13:51.911Z,813.57
2019-04-14T10:16:20.949Z,826.50
2019-04-14T10:18:49.945Z,825.30
2019-04-14T10:21:19.094Z,948.57
2019-04-14T10:23:48.119Z,920.27
2019-04-14T10:26:17.196Z,863.53
2019-04-14T10:28:46.200Z,999.90
2019-04-14T10:31:15.226Z,954.90
2019-04-14T10:33:44.319Z,911.87
2019-04-14T10:36:13.412Z,777.83
2019-04-14T10:38:42.399Z,792.70
2019-04-14T10:41:11.490Z,841.93
2019-04-14T10:43:40.498Z,884.00
2019-04-14T10:46:09.771Z,896.50
2019-04-14T10:48:38.776Z,801.03
2019-04-14T10:51:07.799Z,780.97
2019-04-14T10:53:36.994Z,901.60
2019-04-14T10:56:06.170Z,803.27
2019-04-14T10:58:35.202Z,999.90
2019-04-14T11:01:04.298Z,925.93
2019-04-14T11:03:33.324Z,796.87
2019-04-14T11:06:04.051Z,840.07
2019-04-14T11:08:33.080Z,962.80
2019-04-14T11:11:02.024Z,896.47
2019-04-14T11:13:31.112Z,966.30
2019-04-14T11:16:00.126Z,854.30
2019-04-14T11:18:29.144Z,840.20
2019-04-14T11:20:58.120Z,910.40
2019-04-14T11:23:27.176Z,895.03
2019-04-14T11:25:56.190Z,984.30
2019-04-14T11:28:25.159Z,895.47
2019-04-14T11:30:54.155Z,984.40
2019-04-14T11:33:24.909Z,927.77
2019-04-14T11:35:55.640Z,926.37
2019-04-14T11:38:26.308Z,902.40
2019-04-14T11:40:56.948Z,715.67
2019-04-14T11:43:26.074Z,988.90
2019-04-14T11:45:55.282Z,972.43
2019-04-14T11:48:24.575Z,988.47
2019-04-14T11:50:53.534Z,934.20
2019-04-14T11:53:22.697Z,939.77
2019-04-14T11:55:51.677Z,948.50
2019-04-14T11:58:20.729Z,887.33
2019-04-14T12:00:51.378Z,964.70
2019-04-14T12:03:22.290Z,999.90
2019-04-14T12:05:52.980Z,999.90
2019-04-14T12:08:23.710Z,956.07
2019-04-14T12:10:52.717Z,991.50
2019-04-14T12:13:21.681Z,855.27
2019-04-14T12:15:50.693Z,936.67
2019-04-14T12:18:19.700Z,843.63
2019-04-14T12:20:48.681Z,918.73
2019-04-14T12:23:17.695Z,903.40
2019-04-14T12:25:46.727Z,918.73
2019-04-14T12:28:17.341Z,947.67
2019-04-14T12:30:46.802Z,965.60
2019-04-14T12:33:15.839Z,932.80
2019-04-14T12:35:44.904Z,825.90
2019-04-14T12:38:14.023Z,962.03
2019-04-14T12:40:44.182Z,999.90
2019-04-14T12:43:15.033Z,972.57
2019-04-14T12:45:44.379Z,999.90
2019-04-14T12:48:15.099Z,892.97
2019-04-14T12:50:45.782Z,871.63
2019-04-14T12:53:14.781Z,973.43
2019-04-14T12:55:44.074Z,879.27
2019-04-14T12:58:14.740Z,921.63
2019-04-14T13:00:45.504Z,952.70
2019-04-14T13:03:14.686Z,997.93
2019-04-14T13:05:43.689Z,999.90
2019-04-14T13:08:12.653Z,981.50
2019-04-14T13:10:41.811Z,930.90
2019-04-14T13:13:12.030Z,998.63
2019-04-14T13:15:41.115Z,933.40
2019-04-14T13:18:10.194Z,768.10
2019-04-14T13:20:39.245Z,838.43
2019-04-14T13:23:08.446Z,971.17
2019-04-14T13:25:37.535Z,995.97
2019-04-14T13:28:06.539Z,853.53
2019-04-14T13:30:37.309Z,999.90
2019-04-14T13:33:06.309Z,859.60
2019-04-14T13:35:35.320Z,902.03
2019-04-14T13:38:04.435Z,999.90
2019-04-14T13:40:33.461Z,888.43
2019-04-14T13:43:02.527Z,984.67
2019-04-14T13:45:31.620Z,913.93
2019-04-14T13:48:00.661Z,934.80
2019-04-14T13:50:29.749Z,999.90
2019-04-14T13:52:58.804Z,900.20
2019-04-14T13:55:27.833Z,862.00
2019-04-14T13:57:56.856Z,997.00
2019-04-14T14:00:26.025Z,934.47
2019-04-14T14:02:55.042Z,940.60
2019-04-14T14:05:23.975Z,999.90
2019-04-14T14:07:52.996Z,712.13
2019-04-14T14:10:22.082Z,808.17
2019-04-14T14:12:52.791Z,992.77
2019-04-14T14:15:23.446Z,999.90
2019-04-14T14:17:54.140Z,663.80
2019-04-14T14:20:24.780Z,985.27
2019-04-14T14:22:59.627Z,986.70
2019-04-14T14:25:26.022Z,964.70
2019-04-14T14:27:55.054Z,927.07
2019-04-14T14:30:24.075Z,990.87
2019-04-14T14:32:53.121Z,985.07
2019-04-14T14:35:22.135Z,999.90
2019-04-14T14:37:51.167Z,999.90
2019-04-14T14:40:20.174Z,695.40
2019-04-14T14:42:49.250Z,854.17
2019-04-14T14:45:19.895Z,985.67
2019-04-14T14:47:50.560Z,999.90
2019-04-14T14:50:21.162Z,969.03
2019-04-14T14:52:50.178Z,961.83
2019-04-14T14:55:19.185Z,999.90
2019-04-14T14:57:48.195Z,834.83
2019-04-14T15:00:18.942Z,999.90
2019-04-14T15:02:47.953Z,866.17
2019-04-14T15:05:16.914Z,961.03
2019-04-14T15:07:45.940Z,837.07
2019-04-14T15:10:14.973Z,663.67
2019-04-14T15:12:43.992Z,529.53
2019-04-14T15:15:13.097Z,731.00
2019-04-14T15:17:42.264Z,698.10
2019-04-14T15:20:11.362Z,561.17
2019-04-14T15:22:40.463Z,385.53
2019-04-14T15:25:09.561Z,459.00
2019-04-14T15:27:38.581Z,712.23
2019-04-14T15:30:09.162Z,794.10
2019-04-14T15:32:38.185Z,649.67
2019-04-14T15:35:07.282Z,826.43
2019-04-14T15:37:36.300Z,555.40
2019-04-14T15:40:06.295Z,705.20
2019-04-14T15:42:35.302Z,478.00
2019-04-14T15:45:04.497Z,621.60
2019-04-14T15:47:33.582Z,778.33
2019-04-14T15:50:02.609Z,721.57
2019-04-14T15:52:31.673Z,554.57
2019-04-14T15:55:00.645Z,728.63
2019-04-14T15:57:31.292Z,763.67
2019-04-14T16:00:01.907Z,416.27
2019-04-14T16:02:32.689Z,642.77
2019-04-14T16:05:01.685Z,690.10
2019-04-14T16:07:32.414Z,405.17
2019-04-14T16:10:01.501Z,446.97
2019-04-14T16:12:32.845Z,537.23
2019-04-14T16:15:03.655Z,380.77
2019-04-14T16:17:35.439Z,542.70
2019-04-14T16:20:07.455Z,387.63
2019-04-14T16:22:38.895Z,564.63
2019-04-14T16:25:07.257Z,401.47
2019-04-14T16:27:38.497Z,487.87
2019-04-14T16:30:10.106Z,271.67
2019-04-14T16:32:40.820Z,238.83
2019-04-14T16:35:12.647Z,455.17
2019-04-14T16:37:41.733Z,459.67
2019-04-14T16:40:10.825Z,340.83
2019-04-14T16:42:39.921Z,515.23
2019-04-14T16:45:09.258Z,526.77
2019-04-14T16:47:39.879Z,440.20
2019-04-14T16:50:09.084Z,506.23
2019-04-14T16:52:39.800Z,444.17
2019-04-14T16:55:10.530Z,458.53
2019-04-14T16:57:41.279Z,376.40
2019-04-14T17:03:14.698Z,373.40
2019-04-14T17:05:43.736Z,317.03
2019-04-14T17:08:12.736Z,598.20
2019-04-14T17:10:41.795Z,477.03
2019-04-14T17:13:10.936Z,535.30
2019-04-14T17:15:41.623Z,683.50
2019-04-14T17:18:12.388Z,686.63
2019-04-14T17:20:44.105Z,558.93
2019-04-14T17:23:14.808Z,552.13
2019-04-14T17:25:45.514Z,310.70
2019-04-14T17:28:16.188Z,488.43
2019-04-14T17:30:46.865Z,550.57
2019-04-14T17:33:17.594Z,508.70
2019-04-14T17:35:48.257Z,452.83
2019-04-14T17:38:18.938Z,372.30
2019-04-14T17:40:49.668Z,475.00
2019-04-14T17:43:21.350Z,338.57
2019-04-14T17:45:52.139Z,348.47
2019-04-14T17:48:23.310Z,496.03
2019-04-14T17:50:54.026Z,401.67
2019-04-14T17:53:24.784Z,412.80
2019-04-14T17:55:55.508Z,401.77
2019-04-14T17:58:26.245Z,334.23
2019-04-14T18:00:56.966Z,439.27
2019-04-14T18:03:51.250Z,502.43
2019-04-14T18:06:22.797Z,330.53
2019-04-14T18:08:53.476Z,392.33
2019-04-14T18:11:24.188Z,506.13
2019-04-14T18:13:54.850Z,544.17
2019-04-14T18:16:25.513Z,608.97
2019-04-14T18:18:56.248Z,463.40
2019-04-14T18:21:25.248Z,492.00
2019-04-14T18:23:54.287Z,557.47
2019-04-14T18:26:23.657Z,433.80
2019-04-14T18:28:54.338Z,386.07
2019-04-14T18:31:25.000Z,614.87
2019-04-14T18:33:55.689Z,524.73
2019-04-14T18:36:26.333Z,540.13
2019-04-14T18:38:57.061Z,483.37
2019-04-14T18:41:27.727Z,524.33
2019-04-14T18:43:58.412Z,579.10
2019-04-14T18:46:29.056Z,571.07
2019-04-14T18:48:59.759Z,511.07
2019-04-14T18:51:30.421Z,516.30
2019-04-14T18:54:01.113Z,596.40
2019-04-14T18:56:31.865Z,616.03
2019-04-14T18:59:02.646Z,645.07
2019-04-14T19:01:33.329Z,451.90
2019-04-14T19:04:02.599Z,528.47
2019-04-14T19:06:31.678Z,584.70
2019-04-14T19:09:00.741Z,606.57
2019-04-14T19:11:33.357Z,361.73
2019-04-14T19:14:03.398Z,505.73
2019-04-14T19:16:39.896Z,565.47
2019-04-14T19:19:05.194Z,605.50
2019-04-14T19:21:34.222Z,489.03
2019-04-14T19:24:03.316Z,563.53
2019-04-14T19:26:32.339Z,558.83
2019-04-14T19:29:01.300Z,663.27
2019-04-14T19:31:30.564Z,564.07
2019-04-14T19:33:59.689Z,557.13
2019-04-14T19:36:28.857Z,600.60
2019-04-14T19:38:57.894Z,584.40
2019-04-14T19:41:26.966Z,608.40
2019-04-14T19:43:55.961Z,513.17
2019-04-14T19:46:24.979Z,532.50
2019-04-14T19:48:54.005Z,612.80
2019-04-14T19:51:22.967Z,561.87
2019-04-14T19:53:52.435Z,634.60
2019-04-14T19:56:21.559Z,608.63
2019-04-14T19:58:50.567Z,584.97
2019-04-14T20:01:19.625Z,620.33
2019-04-14T20:03:48.646Z,640.03
2019-04-14T20:06:17.711Z,610.27
2019-04-14T20:08:46.758Z,756.67
2019-04-14T20:11:15.717Z,637.00
2019-04-14T20:13:46.297Z,647.97
2019-04-14T20:16:16.948Z,624.10
2019-04-14T20:18:47.689Z,589.70
2019-04-14T20:21:18.347Z,705.90
2019-04-14T20:23:51.819Z,701.17
2019-04-14T20:26:23.298Z,633.53
2019-04-14T20:28:53.976Z,593.23
2019-04-14T20:31:24.566Z,658.40
2019-04-14T20:33:53.676Z,681.10
2019-04-14T20:36:22.694Z,643.10
2019-04-14T20:38:51.740Z,744.37
2019-04-14T20:41:20.751Z,690.17
2019-04-14T20:43:49.769Z,660.47
2019-04-14T20:46:18.705Z,627.47
2019-04-14T20:48:47.818Z,719.90
2019-04-14T20:51:16.830Z,639.67
2019-04-14T20:53:45.820Z,663.43
2019-04-14T20:56:14.849Z,664.07
2019-04-14T20:58:43.882Z,665.97
2019-04-14T21:01:13.657Z,596.27
2019-04-14T21:03:44.340Z,655.73
2019-04-14T21:06:15.022Z,583.17
2019-04-14T21:08:46.682Z,613.67
2019-04-14T21:11:17.337Z,581.57
2019-04-14T21:13:48.062Z,566.93
2019-04-14T21:16:18.736Z,608.87
2019-04-14T21:18:49.443Z,673.00
2019-04-14T21:21:20.107Z,591.03
2019-04-14T21:23:50.767Z,690.30
2019-04-14T21:26:21.425Z,687.87
2019-04-14T21:28:52.083Z,672.63
2019-04-14T21:31:22.741Z,549.57
2019-04-14T21:33:53.410Z,603.70
2019-04-14T21:36:24.047Z,515.30
2019-04-14T21:38:54.732Z,571.23
2019-04-14T21:41:25.371Z,655.83
2019-04-14T21:43:54.392Z,555.33
2019-04-14T21:46:23.411Z,583.43
2019-04-14T21:48:52.454Z,659.80
2019-04-14T21:51:23.105Z,607.43
2019-04-14T21:53:52.133Z,599.80
2019-04-14T21:56:21.728Z,628.20
2019-04-14T21:58:52.391Z,697.33
2019-04-14T22:01:23.447Z,679.63
2019-04-14T22:03:54.171Z,712.57
2019-04-14T22:06:24.863Z,738.63
2019-04-14T22:08:55.017Z,708.43
2019-04-14T22:11:25.732Z,728.63
2019-04-14T22:13:54.814Z,665.07
2019-04-14T22:16:23.833Z,702.83
2019-04-14T22:18:52.997Z,763.23
2019-04-14T22:21:22.045Z,709.70
2019-04-14T22:24:01.278Z,721.30
2019-04-14T22:26:26.213Z,687.07
2019-04-14T22:28:52.303Z,574.10
2019-04-14T22:31:21.324Z,610.73
2019-04-14T22:33:50.411Z,606.13
2019-04-14T22:36:19.470Z,657.17
2019-04-14T22:38:48.497Z,596.43
2019-04-14T22:41:17.526Z,630.33
2019-04-14T22:43:46.525Z,618.40
2019-04-14T22:46:15.481Z,572.60
2019-04-14T22:48:44.635Z,743.43
2019-04-14T22:51:13.625Z,726.23
2019-04-14T22:53:42.639Z,869.30
2019-04-14T22:56:11.661Z,728.37
2019-04-14T22:58:40.672Z,799.57
2019-04-14T23:01:11.334Z,740.93
2019-04-14T23:03:41.906Z,713.53
2019-04-14T23:06:11.080Z,619.23
2019-04-14T23:08:41.719Z,637.70
2019-04-14T23:11:12.318Z,691.83
2019-04-14T23:13:42.973Z,663.50
2019-04-14T23:16:13.659Z,590.03
2019-04-14T23:18:44.317Z,501.10
2019-04-14T23:21:15.009Z,595.10
2019-04-14T23:23:45.751Z,699.10
2019-04-14T23:26:14.754Z,694.37
2019-04-14T23:28:43.833Z,582.67
2019-04-14T23:31:12.835Z,531.13
2019-04-14T23:33:41.869Z,596.37
2019-04-14T23:36:10.883Z,625.37
2019-04-14T23:38:39.981Z,526.70
2019-04-14T23:41:08.931Z,723.93
2019-04-14T23:43:37.954Z,717.37
2019-04-14T23:46:06.962Z,635.13
2019-04-14T23:48:36.001Z,676.80
2019-04-14T23:51:05.150Z,727.37
2019-04-14T23:53:34.129Z,556.53
2019-04-14T23:56:03.219Z,579.13
2019-04-14T23:58:33.313Z,471.57
